sensor_id;sensor_type;location;lat;lon;timestamp;temperature;humidity
9527;DHT22;4802;51.494;6.770;2022-09-16T00:00:12;15.40;1.00
9527;DHT22;4802;51.494;6.770;2022-09-16T00:02:41;15.50;1.00
9527;DHT22;4802;51.494;6.770;2022-09-16T00:05:12;15.50;1.00
9527;DHT22;4802;51.494;6.770;2022-09-16T00:07:41;15.60;1.00
9527;DHT22;4802;51.494;6.770;2022-09-16T00:10:10;15.60;1.00
9527;DHT22;4802;51.494;6.770;2022-09-16T00:12:39;15.90;1.00
9527;DHT22;4802;51.494;6.770;2022-09-16T00:15:09;15.50;1.00
9527;DHT22;4802;51.494;6.770;2022-09-16T00:17:38;15.40;1.00
9527;DHT22;4802;51.494;6.770;2022-09-16T00:20:08;15.40;1.00
9527;DHT22;4802;51.494;6.770;2022-09-16T00:22:38;15.50;1.00
9527;DHT22;4802;51.494;6.770;2022-09-16T00:25:08;15.50;1.00
9527;DHT22;4802;51.494;6.770;2022-09-16T00:27:42;15.40;1.00
9527;DHT22;4802;51.494;6.770;2022-09-16T00:30:11;15.30;1.00
9527;DHT22;4802;51.494;6.770;2022-09-16T00:32:43;15.20;1.00
9527;DHT22;4802;51.494;6.770;2022-09-16T00:35:14;15.10;1.00
9527;DHT22;4802;51.494;6.770;2022-09-16T00:37:44;15.00;1.00
9527;DHT22;4802;51.494;6.770;2022-09-16T00:40:17;15.00;1.00
9527;DHT22;4802;51.494;6.770;2022-09-16T00:42:46;14.90;1.00
9527;DHT22;4802;51.494;6.770;2022-09-16T00:45:16;14.90;1.00
9527;DHT22;4802;51.494;6.770;2022-09-16T00:47:48;15.00;1.00
9527;DHT22;4802;51.494;6.770;2022-09-16T00:50:21;15.00;1.00
9527;DHT22;4802;51.494;6.770;2022-09-16T00:52:55;15.00;1.00
9527;DHT22;4802;51.494;6.770;2022-09-16T00:55:27;15.20;1.00
9527;DHT22;4802;51.494;6.770;2022-09-16T00:58:03;15.30;1.00
9527;DHT22;4802;51.494;6.770;2022-09-16T01:00:36;15.10;1.00
9527;DHT22;4802;51.494;6.770;2022-09-16T01:03:05;15.00;1.00
9527;DHT22;4802;51.494;6.770;2022-09-16T01:05:35;14.90;1.00
9527;DHT22;4802;51.494;6.770;2022-09-16T01:08:06;14.80;1.00
9527;DHT22;4802;51.494;6.770;2022-09-16T01:10:36;14.70;1.00
9527;DHT22;4802;51.494;6.770;2022-09-16T01:13:07;14.60;1.00
9527;DHT22;4802;51.494;6.770;2022-09-16T01:15:49;14.60;1.00
9527;DHT22;4802;51.494;6.770;2022-09-16T01:18:26;14.60;1.00
9527;DHT22;4802;51.494;6.770;2022-09-16T01:21:20;14.60;1.00
9527;DHT22;4802;51.494;6.770;2022-09-16T01:24:17;14.60;1.00
9527;DHT22;4802;51.494;6.770;2022-09-16T01:27:31;14.50;1.00
9527;DHT22;4802;51.494;6.770;2022-09-16T01:33:02;14.60;1.00
9527;DHT22;4802;51.494;6.770;2022-09-16T01:35:40;14.50;1.00
9527;DHT22;4802;51.494;6.770;2022-09-16T01:38:24;14.50;1.00
9527;DHT22;4802;51.494;6.770;2022-09-16T01:40:59;14.40;1.00
9527;DHT22;4802;51.494;6.770;2022-09-16T01:43:42;14.40;1.00
9527;DHT22;4802;51.494;6.770;2022-09-16T01:46:18;14.40;1.00
9527;DHT22;4802;51.494;6.770;2022-09-16T01:48:55;14.40;1.00
9527;DHT22;4802;51.494;6.770;2022-09-16T01:51:28;14.40;1.00
9527;DHT22;4802;51.494;6.770;2022-09-16T01:54:03;14.40;1.00
9527;DHT22;4802;51.494;6.770;2022-09-16T01:56:38;14.40;1.00
9527;DHT22;4802;51.494;6.770;2022-09-16T01:59:11;14.40;1.00
9527;DHT22;4802;51.494;6.770;2022-09-16T02:01:45;14.90;1.00
9527;DHT22;4802;51.494;6.770;2022-09-16T02:04:22;14.60;1.00
9527;DHT22;4802;51.494;6.770;2022-09-16T02:06:53;14.70;1.00
9527;DHT22;4802;51.494;6.770;2022-09-16T02:09:27;14.70;1.00
9527;DHT22;4802;51.494;6.770;2022-09-16T02:12:01;14.80;1.00
9527;DHT22;4802;51.494;6.770;2022-09-16T02:14:35;14.70;1.00
9527;DHT22;4802;51.494;6.770;2022-09-16T02:17:09;14.70;1.00
9527;DHT22;4802;51.494;6.770;2022-09-16T02:19:42;14.60;1.00
9527;DHT22;4802;51.494;6.770;2022-09-16T02:22:15;14.50;1.00
9527;DHT22;4802;51.494;6.770;2022-09-16T02:24:45;14.50;1.00
9527;DHT22;4802;51.494;6.770;2022-09-16T02:27:16;14.60;1.00
9527;DHT22;4802;51.494;6.770;2022-09-16T02:29:49;14.70;1.00
9527;DHT22;4802;51.494;6.770;2022-09-16T02:32:22;14.70;1.00
9527;DHT22;4802;51.494;6.770;2022-09-16T02:34:55;14.80;1.00
9527;DHT22;4802;51.494;6.770;2022-09-16T02:37:28;14.80;1.00
9527;DHT22;4802;51.494;6.770;2022-09-16T02:40:01;14.80;1.00
9527;DHT22;4802;51.494;6.770;2022-09-16T02:42:32;14.80;1.00
9527;DHT22;4802;51.494;6.770;2022-09-16T02:45:03;14.90;1.00
9527;DHT22;4802;51.494;6.770;2022-09-16T02:47:39;14.80;1.00
9527;DHT22;4802;51.494;6.770;2022-09-16T02:50:16;14.70;1.00
9527;DHT22;4802;51.494;6.770;2022-09-16T02:52:54;14.60;1.00
9527;DHT22;4802;51.494;6.770;2022-09-16T02:55:28;14.60;1.00
9527;DHT22;4802;51.494;6.770;2022-09-16T02:58:04;14.50;1.00
9527;DHT22;4802;51.494;6.770;2022-09-16T03:00:37;14.50;1.00
9527;DHT22;4802;51.494;6.770;2022-09-16T03:03:08;14.50;1.00
9527;DHT22;4802;51.494;6.770;2022-09-16T03:06:05;14.50;1.00
9527;DHT22;4802;51.494;6.770;2022-09-16T03:08:38;14.40;1.00
9527;DHT22;4802;51.494;6.770;2022-09-16T03:11:16;14.30;1.00
9527;DHT22;4802;51.494;6.770;2022-09-16T03:13:52;14.20;1.00
9527;DHT22;4802;51.494;6.770;2022-09-16T03:16:28;14.20;1.00
9527;DHT22;4802;51.494;6.770;2022-09-16T03:19:06;14.20;1.00
9527;DHT22;4802;51.494;6.770;2022-09-16T03:21:43;14.20;1.00
9527;DHT22;4802;51.494;6.770;2022-09-16T03:24:19;14.10;1.00
9527;DHT22;4802;51.494;6.770;2022-09-16T03:26:57;14.10;1.00
9527;DHT22;4802;51.494;6.770;2022-09-16T03:29:33;14.10;1.00
9527;DHT22;4802;51.494;6.770;2022-09-16T03:32:13;14.00;1.00
9527;DHT22;4802;51.494;6.770;2022-09-16T03:34:50;14.00;1.00
9527;DHT22;4802;51.494;6.770;2022-09-16T03:37:22;14.00;1.00
9527;DHT22;4802;51.494;6.770;2022-09-16T03:39:54;14.00;1.00
9527;DHT22;4802;51.494;6.770;2022-09-16T03:42:24;14.00;1.00
9527;DHT22;4802;51.494;6.770;2022-09-16T03:44:53;14.00;1.00
9527;DHT22;4802;51.494;6.770;2022-09-16T03:47:22;14.00;1.00
9527;DHT22;4802;51.494;6.770;2022-09-16T03:49:52;14.00;1.00
9527;DHT22;4802;51.494;6.770;2022-09-16T03:52:22;14.30;1.00
9527;DHT22;4802;51.494;6.770;2022-09-16T03:54:51;14.30;1.00
9527;DHT22;4802;51.494;6.770;2022-09-16T03:57:20;14.30;1.00
9527;DHT22;4802;51.494;6.770;2022-09-16T03:59:49;14.30;1.00
9527;DHT22;4802;51.494;6.770;2022-09-16T04:02:18;14.40;1.00
9527;DHT22;4802;51.494;6.770;2022-09-16T04:04:47;14.50;1.00
9527;DHT22;4802;51.494;6.770;2022-09-16T04:07:16;14.60;1.00
9527;DHT22;4802;51.494;6.770;2022-09-16T04:09:47;14.50;1.00
9527;DHT22;4802;51.494;6.770;2022-09-16T04:12:16;14.70;1.00
9527;DHT22;4802;51.494;6.770;2022-09-16T04:14:45;14.70;1.00
9527;DHT22;4802;51.494;6.770;2022-09-16T04:17:14;15.00;1.00
9527;DHT22;4802;51.494;6.770;2022-09-16T04:19:43;15.00;1.00
9527;DHT22;4802;51.494;6.770;2022-09-16T04:22:12;14.80;1.00
9527;DHT22;4802;51.494;6.770;2022-09-16T04:24:41;14.80;1.00
9527;DHT22;4802;51.494;6.770;2022-09-16T04:27:11;15.20;1.00
9527;DHT22;4802;51.494;6.770;2022-09-16T04:29:40;14.80;1.00
9527;DHT22;4802;51.494;6.770;2022-09-16T04:32:09;14.50;1.00
9527;DHT22;4802;51.494;6.770;2022-09-16T04:34:39;14.20;1.00
9527;DHT22;4802;51.494;6.770;2022-09-16T04:37:09;14.10;1.00
9527;DHT22;4802;51.494;6.770;2022-09-16T04:39:38;14.00;1.00
9527;DHT22;4802;51.494;6.770;2022-09-16T04:42:06;13.90;1.00
9527;DHT22;4802;51.494;6.770;2022-09-16T04:44:41;13.90;1.00
9527;DHT22;4802;51.494;6.770;2022-09-16T04:47:11;13.80;1.00
9527;DHT22;4802;51.494;6.770;2022-09-16T04:49:39;13.90;1.00
9527;DHT22;4802;51.494;6.770;2022-09-16T04:52:09;13.80;1.00
9527;DHT22;4802;51.494;6.770;2022-09-16T04:54:38;13.70;1.00
9527;DHT22;4802;51.494;6.770;2022-09-16T04:57:07;13.70;1.00
9527;DHT22;4802;51.494;6.770;2022-09-16T04:59:36;13.70;1.00
9527;DHT22;4802;51.494;6.770;2022-09-16T05:02:07;13.60;1.00
9527;DHT22;4802;51.494;6.770;2022-09-16T05:04:36;13.60;1.00
9527;DHT22;4802;51.494;6.770;2022-09-16T05:07:04;13.60;1.00
9527;DHT22;4802;51.494;6.770;2022-09-16T05:09:34;13.60;1.00
9527;DHT22;4802;51.494;6.770;2022-09-16T05:12:04;13.60;1.00
9527;DHT22;4802;51.494;6.770;2022-09-16T05:14:35;13.60;1.00
9527;DHT22;4802;51.494;6.770;2022-09-16T05:17:04;13.60;1.00
9527;DHT22;4802;51.494;6.770;2022-09-16T05:19:36;13.50;1.00
9527;DHT22;4802;51.494;6.770;2022-09-16T05:22:05;13.60;1.00
9527;DHT22;4802;51.494;6.770;2022-09-16T05:24:34;13.50;1.00
9527;DHT22;4802;51.494;6.770;2022-09-16T05:27:06;13.70;53.40
9527;DHT22;4802;51.494;6.770;2022-09-16T05:29:35;14.10;1.00
9527;DHT22;4802;51.494;6.770;2022-09-16T05:32:03;14.60;1.00
9527;DHT22;4802;51.494;6.770;2022-09-16T05:34:32;14.80;1.00
9527;DHT22;4802;51.494;6.770;2022-09-16T05:37:04;15.60;1.00
9527;DHT22;4802;51.494;6.770;2022-09-16T05:39:33;16.50;1.00
9527;DHT22;4802;51.494;6.770;2022-09-16T05:42:02;15.50;1.00
9527;DHT22;4802;51.494;6.770;2022-09-16T05:44:32;15.60;1.00
9527;DHT22;4802;51.494;6.770;2022-09-16T05:47:01;15.10;1.00
9527;DHT22;4802;51.494;6.770;2022-09-16T05:49:31;15.10;1.00
9527;DHT22;4802;51.494;6.770;2022-09-16T05:52:00;15.00;1.00
9527;DHT22;4802;51.494;6.770;2022-09-16T05:54:31;15.10;1.00
9527;DHT22;4802;51.494;6.770;2022-09-16T05:57:00;14.70;1.00
9527;DHT22;4802;51.494;6.770;2022-09-16T05:59:36;14.80;1.00
9527;DHT22;4802;51.494;6.770;2022-09-16T06:02:09;14.40;1.00
9527;DHT22;4802;51.494;6.770;2022-09-16T06:04:58;14.40;1.00
9527;DHT22;4802;51.494;6.770;2022-09-16T06:07:36;14.30;1.00
9527;DHT22;4802;51.494;6.770;2022-09-16T06:10:15;14.20;1.00
9527;DHT22;4802;51.494;6.770;2022-09-16T06:12:45;14.30;1.00
9527;DHT22;4802;51.494;6.770;2022-09-16T06:15:17;14.20;1.00
9527;DHT22;4802;51.494;6.770;2022-09-16T06:18:24;14.30;1.00
9527;DHT22;4802;51.494;6.770;2022-09-16T06:21:10;14.30;1.00
9527;DHT22;4802;51.494;6.770;2022-09-16T06:23:39;14.40;1.00
9527;DHT22;4802;51.494;6.770;2022-09-16T06:26:13;14.40;1.00
9527;DHT22;4802;51.494;6.770;2022-09-16T06:28:42;14.30;1.00
9527;DHT22;4802;51.494;6.770;2022-09-16T06:31:14;14.30;1.00
9527;DHT22;4802;51.494;6.770;2022-09-16T06:33:44;14.30;1.00
9527;DHT22;4802;51.494;6.770;2022-09-16T06:36:23;14.30;1.00
9527;DHT22;4802;51.494;6.770;2022-09-16T06:38:52;14.40;1.00
9527;DHT22;4802;51.494;6.770;2022-09-16T06:41:24;14.50;1.00
9527;DHT22;4802;51.494;6.770;2022-09-16T06:44:02;14.50;1.00
9527;DHT22;4802;51.494;6.770;2022-09-16T06:46:34;14.70;1.00
9527;DHT22;4802;51.494;6.770;2022-09-16T06:49:05;14.60;1.00
9527;DHT22;4802;51.494;6.770;2022-09-16T06:51:34;15.10;1.00
9527;DHT22;4802;51.494;6.770;2022-09-16T06:54:05;15.30;1.00
9527;DHT22;4802;51.494;6.770;2022-09-16T06:56:36;15.40;1.00
9527;DHT22;4802;51.494;6.770;2022-09-16T06:59:09;15.40;1.00
9527;DHT22;4802;51.494;6.770;2022-09-16T07:01:40;15.50;1.00
9527;DHT22;4802;51.494;6.770;2022-09-16T07:04:10;15.60;1.00
9527;DHT22;4802;51.494;6.770;2022-09-16T07:06:40;15.60;1.00
9527;DHT22;4802;51.494;6.770;2022-09-16T07:09:34;15.70;1.00
9527;DHT22;4802;51.494;6.770;2022-09-16T07:12:21;15.60;1.00
9527;DHT22;4802;51.494;6.770;2022-09-16T07:14:55;15.60;1.00
9527;DHT22;4802;51.494;6.770;2022-09-16T07:17:27;16.00;1.00
9527;DHT22;4802;51.494;6.770;2022-09-16T07:19:59;16.90;1.00
9527;DHT22;4802;51.494;6.770;2022-09-16T07:22:41;18.10;1.00
9527;DHT22;4802;51.494;6.770;2022-09-16T07:25:20;19.00;1.00
9527;DHT22;4802;51.494;6.770;2022-09-16T07:28:22;19.30;1.00
9527;DHT22;4802;51.494;6.770;2022-09-16T07:30:59;19.30;1.00
9527;DHT22;4802;51.494;6.770;2022-09-16T07:33:44;20.20;1.00
9527;DHT22;4802;51.494;6.770;2022-09-16T07:36:21;21.70;1.00
9527;DHT22;4802;51.494;6.770;2022-09-16T07:38:52;22.70;1.00
9527;DHT22;4802;51.494;6.770;2022-09-16T07:41:33;22.90;1.00
9527;DHT22;4802;51.494;6.770;2022-09-16T07:44:19;23.20;1.00
9527;DHT22;4802;51.494;6.770;2022-09-16T07:46:53;24.10;1.00
9527;DHT22;4802;51.494;6.770;2022-09-16T07:49:22;23.30;1.00
9527;DHT22;4802;51.494;6.770;2022-09-16T07:51:58;23.30;1.00
9527;DHT22;4802;51.494;6.770;2022-09-16T07:54:34;23.70;1.00
9527;DHT22;4802;51.494;6.770;2022-09-16T07:57:09;23.60;1.00
9527;DHT22;4802;51.494;6.770;2022-09-16T07:59:41;23.40;1.00
9527;DHT22;4802;51.494;6.770;2022-09-16T08:02:11;22.60;1.00
9527;DHT22;4802;51.494;6.770;2022-09-16T08:04:46;22.70;1.00
9527;DHT22;4802;51.494;6.770;2022-09-16T08:07:17;22.90;1.00
9527;DHT22;4802;51.494;6.770;2022-09-16T08:09:49;22.90;1.00
9527;DHT22;4802;51.494;6.770;2022-09-16T08:12:27;23.50;1.00
9527;DHT22;4802;51.494;6.770;2022-09-16T08:15:09;24.60;1.00
9527;DHT22;4802;51.494;6.770;2022-09-16T08:17:48;25.10;1.00
9527;DHT22;4802;51.494;6.770;2022-09-16T08:20:21;24.40;1.00
9527;DHT22;4802;51.494;6.770;2022-09-16T08:22:54;23.20;1.00
9527;DHT22;4802;51.494;6.770;2022-09-16T08:25:24;23.50;1.00
9527;DHT22;4802;51.494;6.770;2022-09-16T08:28:11;23.20;1.00
9527;DHT22;4802;51.494;6.770;2022-09-16T08:30:45;22.20;1.00
9527;DHT22;4802;51.494;6.770;2022-09-16T08:33:19;21.10;1.00
9527;DHT22;4802;51.494;6.770;2022-09-16T08:35:59;20.50;1.00
9527;DHT22;4802;51.494;6.770;2022-09-16T08:38:35;21.10;1.00
9527;DHT22;4802;51.494;6.770;2022-09-16T08:41:28;20.80;1.00
9527;DHT22;4802;51.494;6.770;2022-09-16T08:44:08;20.20;1.00
9527;DHT22;4802;51.494;6.770;2022-09-16T08:46:54;19.60;1.00
9527;DHT22;4802;51.494;6.770;2022-09-16T08:49:33;19.20;1.00
9527;DHT22;4802;51.494;6.770;2022-09-16T08:52:27;18.90;1.00
9527;DHT22;4802;51.494;6.770;2022-09-16T08:55:07;19.00;1.00
9527;DHT22;4802;51.494;6.770;2022-09-16T08:57:41;18.90;1.00
9527;DHT22;4802;51.494;6.770;2022-09-16T09:00:55;18.50;1.00
9527;DHT22;4802;51.494;6.770;2022-09-16T09:03:36;18.50;1.00
9527;DHT22;4802;51.494;6.770;2022-09-16T09:06:30;18.50;1.00
9527;DHT22;4802;51.494;6.770;2022-09-16T09:09:11;18.60;1.00
9527;DHT22;4802;51.494;6.770;2022-09-16T09:11:50;19.10;1.00
9527;DHT22;4802;51.494;6.770;2022-09-16T09:14:31;19.20;1.00
9527;DHT22;4802;51.494;6.770;2022-09-16T09:17:08;19.20;1.00
9527;DHT22;4802;51.494;6.770;2022-09-16T09:19:51;19.10;1.00
9527;DHT22;4802;51.494;6.770;2022-09-16T09:22:37;19.30;1.00
9527;DHT22;4802;51.494;6.770;2022-09-16T09:25:25;19.30;1.00
9527;DHT22;4802;51.494;6.770;2022-09-16T09:28:04;19.10;1.00
9527;DHT22;4802;51.494;6.770;2022-09-16T09:30:50;19.00;1.00
9527;DHT22;4802;51.494;6.770;2022-09-16T09:33:33;18.90;1.00
9527;DHT22;4802;51.494;6.770;2022-09-16T09:36:43;18.90;1.00
9527;DHT22;4802;51.494;6.770;2022-09-16T09:39:37;18.70;1.00
9527;DHT22;4802;51.494;6.770;2022-09-16T09:42:17;18.50;1.00
9527;DHT22;4802;51.494;6.770;2022-09-16T09:44:57;18.50;1.00
9527;DHT22;4802;51.494;6.770;2022-09-16T09:47:45;18.30;1.00
9527;DHT22;4802;51.494;6.770;2022-09-16T09:50:35;18.50;1.00
9527;DHT22;4802;51.494;6.770;2022-09-16T09:53:18;18.50;1.00
9527;DHT22;4802;51.494;6.770;2022-09-16T09:55:58;18.50;1.00
9527;DHT22;4802;51.494;6.770;2022-09-16T09:58:32;18.50;1.00
9527;DHT22;4802;51.494;6.770;2022-09-16T10:01:03;18.90;1.00
9527;DHT22;4802;51.494;6.770;2022-09-16T10:03:34;20.00;1.00
9527;DHT22;4802;51.494;6.770;2022-09-16T10:06:06;20.80;1.00
9527;DHT22;4802;51.494;6.770;2022-09-16T10:08:44;21.70;1.00
9527;DHT22;4802;51.494;6.770;2022-09-16T10:11:16;21.50;1.00
9527;DHT22;4802;51.494;6.770;2022-09-16T10:13:51;21.10;1.00
9527;DHT22;4802;51.494;6.770;2022-09-16T10:16:25;20.40;1.00
9527;DHT22;4802;51.494;6.770;2022-09-16T10:18:59;19.90;1.00
9527;DHT22;4802;51.494;6.770;2022-09-16T10:21:40;19.50;1.00
9527;DHT22;4802;51.494;6.770;2022-09-16T10:24:29;19.00;1.00
9527;DHT22;4802;51.494;6.770;2022-09-16T10:27:29;18.90;1.00
9527;DHT22;4802;51.494;6.770;2022-09-16T10:30:18;19.10;1.00
9527;DHT22;4802;51.494;6.770;2022-09-16T10:32:53;19.20;1.00
9527;DHT22;4802;51.494;6.770;2022-09-16T10:35:29;19.10;1.00
9527;DHT22;4802;51.494;6.770;2022-09-16T10:38:14;19.10;1.00
9527;DHT22;4802;51.494;6.770;2022-09-16T10:41:05;19.80;1.00
9527;DHT22;4802;51.494;6.770;2022-09-16T10:43:37;20.50;1.00
9527;DHT22;4802;51.494;6.770;2022-09-16T10:46:13;20.90;1.00
9527;DHT22;4802;51.494;6.770;2022-09-16T10:48:46;21.40;1.00
9527;DHT22;4802;51.494;6.770;2022-09-16T10:51:23;21.90;1.00
9527;DHT22;4802;51.494;6.770;2022-09-16T10:54:26;21.50;1.00
9527;DHT22;4802;51.494;6.770;2022-09-16T10:56:58;20.80;1.00
9527;DHT22;4802;51.494;6.770;2022-09-16T11:00:04;20.80;1.00
9527;DHT22;4802;51.494;6.770;2022-09-16T11:03:20;20.50;1.00
9527;DHT22;4802;51.494;6.770;2022-09-16T11:06:20;20.20;1.00
9527;DHT22;4802;51.494;6.770;2022-09-16T11:09:05;19.80;1.00
9527;DHT22;4802;51.494;6.770;2022-09-16T11:15:22;19.10;1.00
9527;DHT22;4802;51.494;6.770;2022-09-16T11:18:12;17.80;1.00
9527;DHT22;4802;51.494;6.770;2022-09-16T11:21:15;16.90;1.00
9527;DHT22;4802;51.494;6.770;2022-09-16T11:24:04;16.80;1.00
9527;DHT22;4802;51.494;6.770;2022-09-16T11:26:43;16.40;1.00
9527;DHT22;4802;51.494;6.770;2022-09-16T11:29:31;16.40;1.00
9527;DHT22;4802;51.494;6.770;2022-09-16T11:36:07;16.20;1.00
9527;DHT22;4802;51.494;6.770;2022-09-16T11:39:17;16.90;1.00
9527;DHT22;4802;51.494;6.770;2022-09-16T11:42:24;17.40;1.00
9527;DHT22;4802;51.494;6.770;2022-09-16T11:45:34;17.60;1.00
9527;DHT22;4802;51.494;6.770;2022-09-16T11:48:27;17.90;1.00
9527;DHT22;4802;51.494;6.770;2022-09-16T11:54:31;18.60;1.00
9527;DHT22;4802;51.494;6.770;2022-09-16T11:57:14;18.50;1.00
9527;DHT22;4802;51.494;6.770;2022-09-16T12:00:01;18.50;1.00
9527;DHT22;4802;51.494;6.770;2022-09-16T12:02:53;18.70;1.00
9527;DHT22;4802;51.494;6.770;2022-09-16T12:05:50;19.10;1.00
9527;DHT22;4802;51.494;6.770;2022-09-16T12:09:01;19.60;1.00
9527;DHT22;4802;51.494;6.770;2022-09-16T12:11:51;19.80;1.00
9527;DHT22;4802;51.494;6.770;2022-09-16T12:15:16;20.00;1.00
9527;DHT22;4802;51.494;6.770;2022-09-16T12:17:52;20.10;1.00
9527;DHT22;4802;51.494;6.770;2022-09-16T12:20:42;20.00;1.00
9527;DHT22;4802;51.494;6.770;2022-09-16T12:23:19;19.70;1.00
9527;DHT22;4802;51.494;6.770;2022-09-16T12:26:31;19.50;1.00
9527;DHT22;4802;51.494;6.770;2022-09-16T12:29:28;19.40;1.00
9527;DHT22;4802;51.494;6.770;2022-09-16T12:32:03;19.20;1.00
9527;DHT22;4802;51.494;6.770;2022-09-16T12:34:36;19.50;1.00
9527;DHT22;4802;51.494;6.770;2022-09-16T12:37:12;19.60;1.00
9527;DHT22;4802;51.494;6.770;2022-09-16T12:39:43;19.50;1.00
9527;DHT22;4802;51.494;6.770;2022-09-16T12:42:41;19.00;1.00
9527;DHT22;4802;51.494;6.770;2022-09-16T12:45:37;19.80;1.00
9527;DHT22;4802;51.494;6.770;2022-09-16T12:48:53;19.90;1.00
9527;DHT22;4802;51.494;6.770;2022-09-16T12:51:43;19.80;1.00
9527;DHT22;4802;51.494;6.770;2022-09-16T12:54:36;19.50;1.00
9527;DHT22;4802;51.494;6.770;2022-09-16T12:57:43;19.40;1.00
9527;DHT22;4802;51.494;6.770;2022-09-16T13:00:18;19.60;1.00
9527;DHT22;4802;51.494;6.770;2022-09-16T13:02:51;19.40;1.00
9527;DHT22;4802;51.494;6.770;2022-09-16T13:05:26;19.60;1.00
9527;DHT22;4802;51.494;6.770;2022-09-16T13:08:02;19.30;1.00
9527;DHT22;4802;51.494;6.770;2022-09-16T13:10:34;19.30;1.00
9527;DHT22;4802;51.494;6.770;2022-09-16T13:13:30;18.90;1.00
9527;DHT22;4802;51.494;6.770;2022-09-16T13:16:02;18.70;1.00
9527;DHT22;4802;51.494;6.770;2022-09-16T13:18:40;18.60;1.00
9527;DHT22;4802;51.494;6.770;2022-09-16T13:21:23;18.00;1.00
9527;DHT22;4802;51.494;6.770;2022-09-16T13:24:00;17.50;1.00
9527;DHT22;4802;51.494;6.770;2022-09-16T13:26:39;17.20;1.00
9527;DHT22;4802;51.494;6.770;2022-09-16T13:29:38;16.90;1.00
9527;DHT22;4802;51.494;6.770;2022-09-16T13:32:26;16.80;1.00
9527;DHT22;4802;51.494;6.770;2022-09-16T13:35:03;16.50;1.00
9527;DHT22;4802;51.494;6.770;2022-09-16T13:37:33;16.70;1.00
9527;DHT22;4802;51.494;6.770;2022-09-16T13:40:15;17.00;1.00
9527;DHT22;4802;51.494;6.770;2022-09-16T13:43:04;17.10;1.00
9527;DHT22;4802;51.494;6.770;2022-09-16T13:45:45;17.10;1.00
9527;DHT22;4802;51.494;6.770;2022-09-16T13:48:18;17.50;1.00
9527;DHT22;4802;51.494;6.770;2022-09-16T13:50:50;17.70;1.00
9527;DHT22;4802;51.494;6.770;2022-09-16T13:53:25;17.70;1.00
9527;DHT22;4802;51.494;6.770;2022-09-16T13:56:03;17.70;1.00
9527;DHT22;4802;51.494;6.770;2022-09-16T13:58:51;17.60;1.00
9527;DHT22;4802;51.494;6.770;2022-09-16T14:02:00;17.50;1.00
9527;DHT22;4802;51.494;6.770;2022-09-16T14:05:15;17.60;1.00
9527;DHT22;4802;51.494;6.770;2022-09-16T14:07:53;17.30;1.00
9527;DHT22;4802;51.494;6.770;2022-09-16T14:10:35;17.30;1.00
9527;DHT22;4802;51.494;6.770;2022-09-16T14:13:19;17.20;1.00
9527;DHT22;4802;51.494;6.770;2022-09-16T14:15:59;16.60;1.00
9527;DHT22;4802;51.494;6.770;2022-09-16T14:18:59;17.30;1.00
9527;DHT22;4802;51.494;6.770;2022-09-16T14:21:32;17.20;1.00
9527;DHT22;4802;51.494;6.770;2022-09-16T14:24:34;17.30;1.00
9527;DHT22;4802;51.494;6.770;2022-09-16T14:27:38;17.40;1.00
9527;DHT22;4802;51.494;6.770;2022-09-16T14:30:24;17.00;1.00
9527;DHT22;4802;51.494;6.770;2022-09-16T14:33:03;17.00;1.00
9527;DHT22;4802;51.494;6.770;2022-09-16T14:35:47;16.90;1.00
9527;DHT22;4802;51.494;6.770;2022-09-16T14:38:25;17.00;1.00
9527;DHT22;4802;51.494;6.770;2022-09-16T14:41:21;16.90;1.00
9527;DHT22;4802;51.494;6.770;2022-09-16T14:43:57;16.90;1.00
9527;DHT22;4802;51.494;6.770;2022-09-16T14:46:28;16.90;1.00
9527;DHT22;4802;51.494;6.770;2022-09-16T14:48:59;16.90;1.00
9527;DHT22;4802;51.494;6.770;2022-09-16T14:51:33;16.80;1.00
9527;DHT22;4802;51.494;6.770;2022-09-16T14:54:03;16.80;1.00
9527;DHT22;4802;51.494;6.770;2022-09-16T14:56:39;16.80;1.00
9527;DHT22;4802;51.494;6.770;2022-09-16T14:59:15;16.70;1.00
9527;DHT22;4802;51.494;6.770;2022-09-16T15:01:54;16.80;1.00
9527;DHT22;4802;51.494;6.770;2022-09-16T15:04:38;16.80;1.00
9527;DHT22;4802;51.494;6.770;2022-09-16T15:07:24;16.80;1.00
9527;DHT22;4802;51.494;6.770;2022-09-16T15:09:59;16.90;1.00
9527;DHT22;4802;51.494;6.770;2022-09-16T15:12:30;16.80;1.00
9527;DHT22;4802;51.494;6.770;2022-09-16T15:15:03;16.70;1.00
9527;DHT22;4802;51.494;6.770;2022-09-16T15:17:33;16.60;1.00
9527;DHT22;4802;51.494;6.770;2022-09-16T15:20:03;16.60;1.00
9527;DHT22;4802;51.494;6.770;2022-09-16T15:22:39;16.60;1.00
9527;DHT22;4802;51.494;6.770;2022-09-16T15:25:18;16.60;1.00
9527;DHT22;4802;51.494;6.770;2022-09-16T15:27:48;16.60;1.00
9527;DHT22;4802;51.494;6.770;2022-09-16T15:30:20;16.50;1.00
9527;DHT22;4802;51.494;6.770;2022-09-16T15:32:52;16.50;1.00
9527;DHT22;4802;51.494;6.770;2022-09-16T15:35:23;16.50;1.00
9527;DHT22;4802;51.494;6.770;2022-09-16T15:37:54;16.50;1.00
9527;DHT22;4802;51.494;6.770;2022-09-16T15:40:33;16.40;1.00
9527;DHT22;4802;51.494;6.770;2022-09-16T15:43:11;16.40;1.00
9527;DHT22;4802;51.494;6.770;2022-09-16T15:45:43;16.40;1.00
9527;DHT22;4802;51.494;6.770;2022-09-16T15:48:15;16.30;1.00
9527;DHT22;4802;51.494;6.770;2022-09-16T15:50:47;16.40;1.00
9527;DHT22;4802;51.494;6.770;2022-09-16T15:53:21;16.40;1.00
9527;DHT22;4802;51.494;6.770;2022-09-16T15:56:05;16.20;1.00
9527;DHT22;4802;51.494;6.770;2022-09-16T15:58:37;16.00;1.00
9527;DHT22;4802;51.494;6.770;2022-09-16T16:01:12;16.00;1.00
9527;DHT22;4802;51.494;6.770;2022-09-16T16:03:51;16.10;1.00
9527;DHT22;4802;51.494;6.770;2022-09-16T16:06:48;16.20;1.00
9527;DHT22;4802;51.494;6.770;2022-09-16T16:09:41;16.30;1.00
9527;DHT22;4802;51.494;6.770;2022-09-16T16:12:12;16.20;1.00
9527;DHT22;4802;51.494;6.770;2022-09-16T16:14:45;16.80;1.00
9527;DHT22;4802;51.494;6.770;2022-09-16T16:17:17;16.50;1.00
9527;DHT22;4802;51.494;6.770;2022-09-16T16:19:48;16.30;1.00
9527;DHT22;4802;51.494;6.770;2022-09-16T16:22:18;16.20;1.00
9527;DHT22;4802;51.494;6.770;2022-09-16T16:24:50;16.20;1.00
9527;DHT22;4802;51.494;6.770;2022-09-16T16:27:20;16.20;1.00
9527;DHT22;4802;51.494;6.770;2022-09-16T16:29:52;15.90;1.00
9527;DHT22;4802;51.494;6.770;2022-09-16T16:32:24;16.00;1.00
9527;DHT22;4802;51.494;6.770;2022-09-16T16:34:53;16.20;1.00
9527;DHT22;4802;51.494;6.770;2022-09-16T16:37:26;16.30;1.00
9527;DHT22;4802;51.494;6.770;2022-09-16T16:40:16;16.20;1.00
9527;DHT22;4802;51.494;6.770;2022-09-16T16:42:45;16.00;1.00
9527;DHT22;4802;51.494;6.770;2022-09-16T16:45:15;15.70;1.00
9527;DHT22;4802;51.494;6.770;2022-09-16T16:47:47;15.80;1.00
9527;DHT22;4802;51.494;6.770;2022-09-16T16:50:17;15.60;1.00
9527;DHT22;4802;51.494;6.770;2022-09-16T16:54:12;15.60;1.00
9527;DHT22;4802;51.494;6.770;2022-09-16T16:55:51;15.60;1.00
9527;DHT22;4802;51.494;6.770;2022-09-16T16:58:28;15.80;1.00
9527;DHT22;4802;51.494;6.770;2022-09-16T17:01:09;15.60;1.00
9527;DHT22;4802;51.494;6.770;2022-09-16T17:03:39;15.50;1.00
9527;DHT22;4802;51.494;6.770;2022-09-16T17:06:11;15.50;1.00
9527;DHT22;4802;51.494;6.770;2022-09-16T17:08:41;15.50;1.00
9527;DHT22;4802;51.494;6.770;2022-09-16T17:11:14;15.30;1.00
9527;DHT22;4802;51.494;6.770;2022-09-16T17:13:49;15.30;1.00
9527;DHT22;4802;51.494;6.770;2022-09-16T17:16:20;15.50;1.00
9527;DHT22;4802;51.494;6.770;2022-09-16T17:18:52;15.40;1.00
9527;DHT22;4802;51.494;6.770;2022-09-16T17:21:23;15.00;1.00
9527;DHT22;4802;51.494;6.770;2022-09-16T17:23:53;14.60;1.00
9527;DHT22;4802;51.494;6.770;2022-09-16T17:26:25;14.90;1.00
9527;DHT22;4802;51.494;6.770;2022-09-16T17:28:58;14.80;1.00
9527;DHT22;4802;51.494;6.770;2022-09-16T17:32:06;14.80;1.00
9527;DHT22;4802;51.494;6.770;2022-09-16T17:34:35;14.70;1.00
9527;DHT22;4802;51.494;6.770;2022-09-16T17:37:05;14.70;1.00
9527;DHT22;4802;51.494;6.770;2022-09-16T17:39:35;14.70;1.00